Time;durP1;ratioP1;P1;durP2;ratioP2;P2;SDS_P1;SDS_P2;PMS_P1;PMS_P2;Temp;Humidity;BMP_temperature;BMP_pressure;BME280_temperature;BME280_humidity;BME280_pressure;Samples;Min_cycle;Max_cycle;Signal;HPM_P1;HPM_P2
2020/12/04 00:01:08;;;;;;;19.88;10.65;;;2.70;99.90;;;;;;5012578;28;20298;-86
2020/12/04 00:03:34;;;;;;;18.73;10.15;;;2.80;99.90;;;;;;5012946;28;20323;-85
2020/12/04 00:06:01;;;;;;;17.17;9.60;;;2.80;99.90;;;;;;5013419;28;20331;-86
2020/12/04 00:08:28;;;;;;;15.75;8.57;;;2.80;99.90;;;;;;5013586;28;20211;-87
2020/12/04 00:10:54;;;;;;;16.92;10.02;;;2.80;99.90;;;;;;5013583;28;20310;-88
2020/12/04 00:13:21;;;;;;;14.65;9.68;;;2.80;99.90;;;;;;5013533;28;20770;-86
2020/12/04 00:15:47;;;;;;;11.98;8.90;;;2.80;99.90;;;;;;5013641;28;20217;-87
2020/12/04 00:18:14;;;;;;;16.20;8.95;;;2.80;99.90;;;;;;5014195;28;20250;-85
2020/12/04 00:20:40;;;;;;;16.67;9.65;;;2.90;99.90;;;;;;5014319;28;20307;-86
2020/12/04 00:23:06;;;;;;;20.05;9.63;;;2.90;99.90;;;;;;5014446;28;20294;-87
2020/12/04 00:25:34;;;;;;;16.55;8.15;;;3.10;99.90;;;;;;5014686;28;20294;-85
2020/12/04 00:28:00;;;;;;;19.13;10.90;;;3.20;99.90;;;;;;5014789;28;20937;-86
2020/12/04 00:30:26;;;;;;;18.35;9.82;;;3.20;99.90;;;;;;5015912;28;20286;-86
2020/12/04 00:32:53;;;;;;;15.38;9.00;;;3.20;99.90;;;;;;5027082;28;20254;-86
2020/12/04 00:35:19;;;;;;;15.68;8.40;;;3.20;99.90;;;;;;5035319;28;20194;-88
2020/12/04 00:37:45;;;;;;;12.32;7.18;;;3.30;99.90;;;;;;5036411;28;20218;-86
2020/12/04 00:40:12;;;;;;;12.60;8.23;;;3.30;99.90;;;;;;5036407;28;20204;-85
2020/12/04 00:42:39;;;;;;;13.27;7.03;;;3.40;99.90;;;;;;5017086;28;20202;-86
2020/12/04 00:45:07;;;;;;;14.38;7.10;;;3.50;99.90;;;;;;5013148;28;20319;-84
2020/12/04 00:47:34;;;;;;;12.73;8.27;;;3.50;99.90;;;;;;5013190;28;20297;-85
2020/12/04 00:50:00;;;;;;;16.40;8.80;;;3.60;99.90;;;;;;5013010;28;20241;-86
2020/12/04 00:52:28;;;;;;;14.73;9.35;;;3.50;99.90;;;;;;5013840;28;20630;-86
2020/12/04 00:54:55;;;;;;;15.68;9.02;;;3.40;99.90;;;;;;5022926;28;20210;-85
2020/12/04 00:57:21;;;;;;;12.95;8.00;;;3.20;99.90;;;;;;5031494;28;20212;-86
2020/12/04 00:59:48;;;;;;;14.57;9.45;;;3.10;99.90;;;;;;5035666;28;20208;-86
2020/12/04 01:02:15;;;;;;;13.15;9.65;;;3.10;99.90;;;;;;5036284;28;20226;-86
2020/12/04 01:04:41;;;;;;;16.30;10.05;;;3.00;99.90;;;;;;5026338;28;20342;-85
2020/12/04 01:07:08;;;;;;;17.70;10.65;;;2.90;99.90;;;;;;5028738;28;20591;-86
2020/12/04 01:09:35;;;;;;;13.35;10.50;;;2.80;99.90;;;;;;5038371;28;20237;-86
2020/12/04 01:12:03;;;;;;;18.52;9.65;;;2.90;99.90;;;;;;5037198;28;20274;-86
2020/12/04 01:14:30;;;;;;;13.35;9.63;;;2.80;99.90;;;;;;5037048;28;20293;-87
2020/12/04 01:16:57;;;;;;;16.00;8.80;;;2.90;99.90;;;;;;5036069;28;20637;-86
2020/12/04 01:19:23;;;;;;;15.23;9.40;;;2.90;99.90;;;;;;5036906;28;20238;-86
2020/12/04 01:21:50;;;;;;;16.70;8.50;;;2.90;99.90;;;;;;5036492;28;20234;-86
2020/12/04 01:24:18;;;;;;;11.15;8.35;;;3.00;99.90;;;;;;5036553;28;20710;-86
2020/12/04 01:26:45;;;;;;;12.55;8.88;;;3.00;99.90;;;;;;5036037;28;20268;-86
2020/12/04 01:29:11;;;;;;;9.60;6.50;;;3.00;99.90;;;;;;5035675;28;20290;-86
2020/12/04 01:31:37;;;;;;;16.70;9.50;;;3.10;99.90;;;;;;5034425;28;20209;-86
2020/12/04 01:34:05;;;;;;;13.07;7.80;;;3.10;99.90;;;;;;5035684;28;20226;-86
2020/12/04 01:36:31;;;;;;;18.02;9.30;;;3.10;99.90;;;;;;5030527;28;20299;-87
2020/12/04 01:38:58;;;;;;;11.57;7.72;;;3.20;99.90;;;;;;5015350;28;20203;-86
2020/12/04 01:41:24;;;;;;;12.80;8.60;;;3.20;99.90;;;;;;5015596;28;20688;-87
2020/12/04 01:43:50;;;;;;;16.75;9.13;;;3.20;99.90;;;;;;5016627;28;20290;-87
2020/12/04 01:46:17;;;;;;;14.23;8.80;;;3.20;99.90;;;;;;5016406;28;20317;-87
2020/12/04 01:48:45;;;;;;;12.30;7.30;;;3.20;99.90;;;;;;5017428;28;20271;-87
2020/12/04 01:51:12;;;;;;;12.32;8.18;;;3.10;99.90;;;;;;5016797;28;20311;-87
2020/12/04 01:53:44;;;;;;;13.95;8.73;;;3.10;99.90;;;;;;5017824;28;20306;-87
2020/12/04 01:56:11;;;;;;;12.40;9.13;;;3.10;99.90;;;;;;5017785;28;20215;-87
2020/12/04 01:58:39;;;;;;;13.07;9.05;;;3.00;99.90;;;;;;5018825;28;20246;-87
2020/12/04 02:01:07;;;;;;;12.27;8.75;;;3.10;99.90;;;;;;5016803;28;20656;-87
2020/12/04 02:03:34;;;;;;;15.30;8.68;;;3.10;99.90;;;;;;5019205;28;20235;-88
2020/12/04 02:06:06;;;;;;;13.57;9.60;;;3.00;99.90;;;;;;5017436;28;20750;-87
2020/12/04 02:08:39;;;;;;;13.85;8.48;;;3.00;99.90;;;;;;5017687;28;20207;-86
2020/12/04 02:11:14;;;;;;;12.13;9.63;;;3.00;99.90;;;;;;5018645;28;20200;-88
2020/12/04 02:13:45;;;;;;;15.05;8.90;;;3.00;99.90;;;;;;5017527;28;20281;-87
2020/12/04 02:16:17;;;;;;;17.17;10.68;;;3.00;99.90;;;;;;5017960;28;20207;-86
2020/12/04 02:18:43;;;;;;;18.85;9.98;;;3.00;99.90;;;;;;5015315;28;20651;-88
2020/12/04 02:21:11;;;;;;;13.25;8.55;;;3.00;99.90;;;;;;5014812;28;20615;-85
2020/12/04 02:23:37;;;;;;;22.17;10.43;;;3.00;99.90;;;;;;5014431;28;20203;-86
2020/12/04 02:26:04;;;;;;;12.05;8.88;;;3.00;99.90;;;;;;5014299;28;20318;-85
2020/12/04 02:28:32;;;;;;;11.27;7.55;;;3.00;99.90;;;;;;5014317;28;20306;-85
2020/12/04 02:30:58;;;;;;;18.63;8.80;;;3.10;99.90;;;;;;5013238;28;20243;-85
2020/12/04 02:33:25;;;;;;;14.55;8.82;;;3.00;99.90;;;;;;5013457;28;20200;-85
2020/12/04 02:35:51;;;;;;;11.60;7.35;;;3.10;99.90;;;;;;5014605;28;20303;-86
2020/12/04 02:38:18;;;;;;;14.00;9.60;;;3.10;99.90;;;;;;5013849;28;20675;-85
2020/12/04 02:40:45;;;;;;;10.05;8.63;;;3.10;99.90;;;;;;5014470;28;20203;-87
2020/12/04 02:43:11;;;;;;;11.45;7.97;;;3.10;99.90;;;;;;5014351;28;20633;-88
2020/12/04 02:45:37;;;;;;;14.00;7.90;;;3.00;99.90;;;;;;5012971;28;20290;-87
2020/12/04 02:48:04;;;;;;;13.10;9.35;;;3.10;99.90;;;;;;5013907;28;20322;-88
2020/12/04 02:50:30;;;;;;;13.48;8.70;;;3.00;99.90;;;;;;5014064;28;20290;-86
2020/12/04 02:52:57;;;;;;;12.88;8.15;;;3.00;99.90;;;;;;5013750;28;20294;-86
2020/12/04 02:55:24;;;;;;;12.80;8.57;;;3.00;99.90;;;;;;5013851;28;20303;-88
2020/12/04 02:57:50;;;;;;;15.18;7.78;;;3.00;99.90;;;;;;5014565;28;20294;-87
2020/12/04 03:00:17;;;;;;;15.23;8.60;;;3.10;99.90;;;;;;5012914;28;20300;-87
2020/12/04 03:02:43;;;;;;;15.65;9.80;;;3.00;99.90;;;;;;5013925;28;20301;-87
2020/12/04 03:05:09;;;;;;;14.95;8.52;;;3.00;99.90;;;;;;5013882;28;20306;-86
2020/12/04 03:07:36;;;;;;;14.93;9.95;;;3.10;99.90;;;;;;5012977;28;20323;-86
2020/12/04 03:10:03;;;;;;;17.65;9.55;;;3.10;99.90;;;;;;5013805;28;20203;-87
2020/12/04 03:12:32;;;;;;;13.82;8.48;;;3.00;99.90;;;;;;5014318;28;20217;-85
2020/12/04 03:15:00;;;;;;;15.95;9.50;;;3.10;99.90;;;;;;5011784;28;20254;-85
2020/12/04 03:17:27;;;;;;;15.05;10.50;;;3.10;99.90;;;;;;5013449;28;20242;-86
2020/12/04 03:19:55;;;;;;;13.63;9.30;;;3.10;99.90;;;;;;5010431;28;20208;-85
2020/12/04 03:22:21;;;;;;;12.18;7.85;;;3.10;99.90;;;;;;5013210;28;20294;-85
2020/12/04 03:24:47;;;;;;;16.83;8.25;;;3.10;99.90;;;;;;5013348;28;20298;-85
2020/12/04 03:27:14;;;;;;;12.93;8.23;;;3.10;99.90;;;;;;5013225;28;20781;-85
2020/12/04 03:29:41;;;;;;;14.15;9.18;;;3.00;99.90;;;;;;5013261;28;20215;-85
2020/12/04 03:32:08;;;;;;;15.13;8.90;;;3.00;99.90;;;;;;5012330;28;20238;-86
2020/12/04 03:34:34;;;;;;;18.60;10.45;;;3.00;99.90;;;;;;5013337;28;20291;-86
2020/12/04 03:37:01;;;;;;;13.45;8.77;;;3.00;99.90;;;;;;5013087;28;20306;-86
2020/12/04 03:39:27;;;;;;;13.70;8.15;;;3.00;99.90;;;;;;5013259;28;20833;-90
2020/12/04 03:41:53;;;;;;;13.25;9.05;;;3.00;99.90;;;;;;5013507;28;20239;-88
2020/12/04 03:44:20;;;;;;;14.27;8.82;;;3.00;99.90;;;;;;5013311;28;20290;-87
2020/12/04 03:46:48;;;;;;;13.20;8.07;;;3.00;99.90;;;;;;5012283;28;20231;-87
2020/12/04 03:49:15;;;;;;;12.88;8.10;;;3.10;99.90;;;;;;5013352;28;20265;-87
2020/12/04 03:51:42;;;;;;;12.80;8.50;;;3.10;99.90;;;;;;5013156;28;20298;-87
2020/12/04 03:54:08;;;;;;;15.02;8.23;;;3.20;99.90;;;;;;5012966;28;20599;-88
2020/12/04 03:56:35;;;;;;;13.63;8.73;;;3.30;99.90;;;;;;5013213;28;20215;-89
2020/12/04 03:59:01;;;;;;;10.30;6.70;;;3.40;99.90;;;;;;5013349;28;20254;-88
2020/12/04 04:01:27;;;;;;;14.20;8.93;;;3.30;99.90;;;;;;5012571;28;20290;-88
2020/12/04 04:03:54;;;;;;;11.05;7.47;;;3.30;99.90;;;;;;5013552;28;20267;-88
2020/12/04 04:06:21;;;;;;;11.43;7.18;;;3.30;99.90;;;;;;5013278;28;20330;-87
2020/12/04 04:08:47;;;;;;;15.38;8.07;;;3.30;99.90;;;;;;5013002;28;20290;-88
2020/12/04 04:11:14;;;;;;;10.68;7.45;;;3.30;99.90;;;;;;5013113;28;20697;-87
2020/12/04 04:13:42;;;;;;;13.40;8.15;;;3.30;99.90;;;;;;5013221;28;20302;-87
2020/12/04 04:16:08;;;;;;;12.63;8.32;;;3.50;99.90;;;;;;5012159;28;20203;-89
2020/12/04 04:18:34;;;;;;;13.90;8.25;;;3.50;99.90;;;;;;5013601;28;20282;-88
2020/12/04 04:21:07;;;;;;;15.45;9.20;;;3.50;99.90;;;;;;5013986;28;20243;-88
2020/12/04 04:23:33;;;;;;;14.00;7.78;;;3.40;99.90;;;;;;5014111;28;20208;-88
2020/12/04 04:26:00;;;;;;;11.52;8.20;;;3.30;99.90;;;;;;5016678;28;20302;-89
2020/12/04 04:28:26;;;;;;;11.60;7.97;;;3.30;99.90;;;;;;5019172;28;20223;-89
2020/12/04 04:30:52;;;;;;;13.00;8.13;;;3.30;99.90;;;;;;5019162;28;20632;-88
2020/12/04 04:33:19;;;;;;;14.48;8.20;;;3.30;99.90;;;;;;5035009;28;20204;-89
2020/12/04 04:35:45;;;;;;;11.95;8.05;;;3.30;99.90;;;;;;5039010;28;20206;-89
2020/12/04 04:38:12;;;;;;;11.20;8.05;;;3.30;99.90;;;;;;5037885;28;20199;-89
2020/12/04 04:40:39;;;;;;;14.35;8.70;;;3.30;99.90;;;;;;5031849;28;20208;-89
2020/12/04 04:43:10;;;;;;;15.63;9.35;;;3.20;99.90;;;;;;5020362;28;20671;-89
2020/12/04 04:45:38;;;;;;;12.98;10.35;;;3.30;99.90;;;;;;5018594;28;20204;-88
2020/12/04 04:48:10;;;;;;;21.15;9.95;;;3.30;99.90;;;;;;5017711;28;20255;-88
2020/12/04 04:50:37;;;;;;;10.43;8.15;;;3.30;99.90;;;;;;5016597;28;20286;-88
2020/12/04 04:53:05;;;;;;;14.20;9.23;;;3.40;99.90;;;;;;5016202;28;20234;-89
2020/12/04 04:55:32;;;;;;;14.27;9.98;;;3.40;99.90;;;;;;5016271;28;20282;-85
2020/12/04 04:57:59;;;;;;;43.47;25.17;;;3.40;99.90;;;;;;5016442;28;20675;-91
2020/12/04 05:00:26;;;;;;;35.45;19.77;;;3.40;99.90;;;;;;5012527;28;20208;-87
2020/12/04 05:02:53;;;;;;;34.75;18.27;;;3.30;99.90;;;;;;5017431;28;20322;-87
2020/12/04 05:05:19;;;;;;;37.38;26.33;;;3.30;99.90;;;;;;5016299;28;20211;-87
2020/12/04 05:07:46;;;;;;;38.97;24.02;;;3.20;99.90;;;;;;5015793;28;20695;-87
2020/12/04 05:10:14;;;;;;;10.85;8.65;;;3.30;99.90;;;;;;5013307;28;20298;-88
2020/12/04 05:12:42;;;;;;;11.57;7.05;;;3.20;99.90;;;;;;5016712;28;20452;-88
2020/12/04 05:15:27;;;;;;;13.50;8.32;;;3.30;99.90;;;;;;5015244;28;20314;-88
2020/12/04 05:18:01;;;;;;;19.85;11.05;;;3.30;99.90;;;;;;5015976;28;20298;-89
2020/12/04 05:20:28;;;;;;;11.57;9.07;;;3.40;99.90;;;;;;5015806;28;20656;-91
2020/12/04 05:22:56;;;;;;;14.10;8.98;;;3.50;99.90;;;;;;5012693;28;20203;-88
2020/12/04 05:25:22;;;;;;;85.57;44.88;;;3.30;99.90;;;;;;5015999;28;20239;-89
2020/12/04 05:27:51;;;;;;;26.83;15.40;;;3.30;99.90;;;;;;5014233;28;20235;-88
2020/12/04 05:30:25;;;;;;;28.30;15.75;;;3.40;99.90;;;;;;5018888;28;20631;-89
2020/12/04 05:32:59;;;;;;;17.35;11.10;;;3.40;99.90;;;;;;5015967;28;20287;-88
2020/12/04 05:35:25;;;;;;;15.70;9.52;;;3.40;99.90;;;;;;5016034;28;20294;-88
2020/12/04 05:38:08;;;;;;;11.85;8.60;;;3.40;99.90;;;;;;5016018;28;20204;-88
2020/12/04 05:40:35;;;;;;;11.35;9.00;;;3.40;99.90;;;;;;5016588;28;20218;-87
2020/12/04 05:43:03;;;;;;;10.18;7.85;;;3.30;99.90;;;;;;5016211;28;20208;-88
2020/12/04 05:45:30;;;;;;;11.73;7.13;;;3.40;99.90;;;;;;5014958;28;20235;-88
2020/12/04 05:47:56;;;;;;;11.25;7.38;;;3.40;99.90;;;;;;5015916;28;20235;-88
2020/12/04 05:50:23;;;;;;;14.02;8.00;;;3.40;99.90;;;;;;5017368;28;20200;-90
2020/12/04 05:52:50;;;;;;;11.82;7.82;;;3.50;99.90;;;;;;5018121;28;20246;-89
2020/12/04 05:55:17;;;;;;;14.10;7.65;;;3.40;99.90;;;;;;5018174;28;20243;-89
2020/12/04 05:57:46;;;;;;;15.35;10.40;;;3.50;99.90;;;;;;5023154;28;20218;-89
2020/12/04 06:00:15;;;;;;;12.98;7.15;;;3.30;99.90;;;;;;5037722;28;20195;-89
2020/12/04 06:02:41;;;;;;;10.23;7.30;;;3.40;99.90;;;;;;5039258;28;20250;-89
2020/12/04 06:05:10;;;;;;;11.88;7.30;;;3.40;99.90;;;;;;5009835;28;20656;-88
2020/12/04 06:07:37;;;;;;;9.27;7.30;;;3.50;99.90;;;;;;5004966;28;20227;-88
2020/12/04 06:10:04;;;;;;;11.40;6.55;;;3.50;99.90;;;;;;5010577;28;20227;-90
2020/12/04 06:12:31;;;;;;;9.27;5.38;;;3.50;99.90;;;;;;5015389;28;20201;-88
2020/12/04 06:15:23;;;;;;;12.85;7.55;;;3.60;99.90;;;;;;5016638;28;20196;-89
2020/12/04 06:17:50;;;;;;;10.32;8.00;;;3.70;99.90;;;;;;5012907;28;20219;-90
2020/12/04 06:20:18;;;;;;;14.88;8.32;;;3.60;99.90;;;;;;4997094;28;20291;-89
2020/12/04 06:23:07;;;;;;;11.60;7.60;;;3.60;99.90;;;;;;4996753;28;20223;-88
2020/12/04 06:25:59;;;;;;;15.73;7.80;;;3.60;99.90;;;;;;4995680;28;20212;-89
2020/12/04 06:28:28;;;;;;;11.95;7.72;;;3.60;99.90;;;;;;4995192;28;20268;-88
2020/12/04 06:31:03;;;;;;;14.43;10.38;;;3.50;99.90;;;;;;4994715;28;20295;-88
2020/12/04 06:33:34;;;;;;;12.43;6.85;;;3.50;99.90;;;;;;5007618;28;20273;-89
2020/12/04 06:36:01;;;;;;;9.52;6.75;;;3.50;99.90;;;;;;5031335;28;20620;-89
2020/12/04 06:38:43;;;;;;;12.85;7.72;;;3.40;99.90;;;;;;5034579;28;20309;-89
2020/12/04 06:41:27;;;;;;;11.48;7.60;;;3.40;99.90;;;;;;5034370;28;20199;-90
2020/12/04 06:43:56;;;;;;;8.68;7.35;;;3.40;99.90;;;;;;5034300;28;20202;-88
2020/12/04 06:46:36;;;;;;;12.60;7.72;;;3.40;99.90;;;;;;5033292;28;20252;-89
2020/12/04 06:49:11;;;;;;;9.45;6.60;;;3.40;99.90;;;;;;5035189;28;20198;-89
2020/12/04 06:51:39;;;;;;;9.18;6.85;;;3.40;99.90;;;;;;5033277;28;20225;-87
2020/12/04 06:54:06;;;;;;;9.52;6.90;;;3.60;99.90;;;;;;5033839;28;20199;-88
2020/12/04 06:56:33;;;;;;;9.30;7.13;;;3.60;99.90;;;;;;5033868;28;20226;-88
2020/12/04 06:59:00;;;;;;;11.43;6.63;;;3.70;99.90;;;;;;5033690;28;20198;-88
2020/12/04 07:01:27;;;;;;;9.57;6.75;;;3.80;99.90;;;;;;5032425;28;20564;-88
2020/12/04 07:03:56;;;;;;;10.95;6.10;;;3.80;99.90;;;;;;5023063;28;20322;-89
2020/12/04 07:06:24;;;;;;;9.43;6.95;;;3.80;99.90;;;;;;5013134;28;20725;-89
2020/12/04 07:08:58;;;;;;;7.78;5.72;;;3.80;99.90;;;;;;5013780;28;20301;-88
2020/12/04 07:11:25;;;;;;;10.45;6.70;;;3.80;99.90;;;;;;5013693;28;20207;-89
2020/12/04 07:13:52;;;;;;;11.95;6.97;;;3.80;99.90;;;;;;5013653;28;20210;-88
2020/12/04 07:16:19;;;;;;;22.67;13.00;;;3.90;99.90;;;;;;5012381;28;20628;-89
2020/12/04 07:18:50;;;;;;;16.55;10.70;;;4.00;99.90;;;;;;5013469;28;20294;-89
2020/12/04 07:21:17;;;;;;;12.25;7.72;;;4.00;99.90;;;;;;5013304;28;20203;-87
2020/12/04 07:23:44;;;;;;;13.55;8.15;;;4.00;99.90;;;;;;5013557;28;20250;-88
2020/12/04 07:26:15;;;;;;;25.98;16.73;;;3.90;99.90;;;;;;5013428;28;20606;-88
2020/12/04 07:28:44;;;;;;;40.97;21.58;;;4.00;99.90;;;;;;5013643;28;20231;-89
2020/12/04 07:31:18;;;;;;;36.13;20.25;;;4.00;99.90;;;;;;5012373;28;20749;-88
2020/12/04 07:33:56;;;;;;;37.28;17.75;;;3.90;99.90;;;;;;5013321;28;20207;-88
2020/12/04 07:36:24;;;;;;;29.27;15.48;;;3.80;99.90;;;;;;5013435;28;20662;-89
2020/12/04 07:38:55;;;;;;;12.85;8.82;;;3.80;99.90;;;;;;5013647;28;20294;-87
2020/12/04 07:41:35;;;;;;;13.15;8.20;;;3.80;99.90;;;;;;5013648;28;20238;-89
2020/12/04 07:44:05;;;;;;;12.90;8.88;;;3.80;99.90;;;;;;5012958;28;20485;-89
2020/12/04 07:46:35;;;;;;;12.38;7.40;;;3.80;99.90;;;;;;5011358;28;20663;-87
2020/12/04 07:49:03;;;;;;;13.30;9.18;;;3.80;99.90;;;;;;5012329;28;20843;-87
2020/12/04 07:51:33;;;;;;;27.23;17.77;;;3.80;99.90;;;;;;5012866;28;20198;-86
2020/12/04 07:54:02;;;;;;;15.48;10.90;;;3.80;99.90;;;;;;5012795;28;20290;-87
2020/12/04 07:56:30;;;;;;;39.50;23.13;;;3.80;99.90;;;;;;5013256;28;20224;-88
2020/12/04 07:59:20;;;;;;;36.67;21.25;;;4.00;99.90;;;;;;5013330;28;20302;-91
2020/12/04 08:01:46;;;;;;;40.90;23.25;;;4.60;99.90;;;;;;5009779;28;20758;-85
2020/12/04 08:04:17;;;;;;;11.98;8.27;;;4.50;99.90;;;;;;5016802;28;20620;-88
2020/12/04 08:06:45;;;;;;;13.43;8.65;;;4.30;99.90;;;;;;5017293;28;20757;-87
2020/12/04 08:09:13;;;;;;;14.95;9.57;;;4.20;99.90;;;;;;5016965;28;20234;-87
2020/12/04 08:11:51;;;;;;;10.43;6.60;;;4.10;99.90;;;;;;5018960;28;20302;-86
2020/12/04 08:14:23;;;;;;;11.07;8.05;;;4.20;99.90;;;;;;5017408;28;20210;-85
2020/12/04 08:16:53;;;;;;;11.27;8.13;;;4.30;99.90;;;;;;5015751;28;20302;-85
2020/12/04 08:19:23;;;;;;;12.68;7.22;;;4.30;99.90;;;;;;5016564;28;20211;-84
2020/12/04 08:22:00;;;;;;;10.32;7.22;;;4.40;99.90;;;;;;5016602;28;20250;-85
2020/12/04 08:24:28;;;;;;;9.23;7.25;;;4.40;99.90;;;;;;5016839;28;20286;-85
2020/12/04 08:26:59;;;;;;;14.90;10.02;;;4.60;99.90;;;;;;5016644;28;20342;-83
2020/12/04 08:29:25;;;;;;;15.88;11.75;;;4.80;99.90;;;;;;5016569;28;20290;-84
2020/12/04 08:32:07;;;;;;;9.07;6.45;;;4.80;99.90;;;;;;5015386;28;20613;-85
2020/12/04 08:34:33;;;;;;;8.27;5.85;;;4.80;99.90;;;;;;5016251;28;20203;-86
2020/12/04 08:37:02;;;;;;;21.23;11.70;;;4.60;99.90;;;;;;5016725;28;20212;-85
2020/12/04 08:39:39;;;;;;;13.05;8.30;;;4.50;99.90;;;;;;5016397;28;20616;-85
2020/12/04 08:42:20;;;;;;;15.70;10.32;;;4.50;99.90;;;;;;5016308;28;20298;-85
2020/12/04 08:45:06;;;;;;;11.30;8.57;;;4.50;99.90;;;;;;5016238;28;20254;-84
2020/12/04 08:47:38;;;;;;;8.43;7.28;;;4.50;99.90;;;;;;5016210;28;20326;-86
2020/12/04 08:50:15;;;;;;;13.38;7.93;;;4.50;99.90;;;;;;5015870;28;20672;-84
2020/12/04 08:52:45;;;;;;;9.50;8.18;;;4.60;99.90;;;;;;5016234;28;20262;-85
2020/12/04 08:55:16;;;;;;;12.90;8.95;;;4.60;99.90;;;;;;5016032;28;20656;-85
2020/12/04 08:57:43;;;;;;;11.73;9.43;;;4.90;99.90;;;;;;5016277;28;20290;-85
2020/12/04 09:00:13;;;;;;;17.23;9.95;;;5.00;99.90;;;;;;5015032;28;20296;-83
2020/12/04 09:02:40;;;;;;;12.95;10.30;;;5.00;99.90;;;;;;5015855;28;20299;-84
2020/12/04 09:05:08;;;;;;;18.27;12.88;;;5.30;99.90;;;;;;5016023;28;20208;-85
2020/12/04 09:07:34;;;;;;;12.63;9.32;;;5.50;99.90;;;;;;5015724;28;20314;-86
2020/12/04 09:10:02;;;;;;;11.05;7.50;;;5.40;99.90;;;;;;5016015;28;20297;-87
2020/12/04 09:12:29;;;;;;;10.15;6.60;;;5.10;99.90;;;;;;5016173;28;20227;-90
2020/12/04 09:14:56;;;;;;;10.55;7.22;;;5.00;99.90;;;;;;5014298;28;20628;-86
2020/12/04 09:17:22;;;;;;;11.05;7.90;;;5.00;99.90;;;;;;5016499;28;20211;-84
2020/12/04 09:19:49;;;;;;;9.38;6.85;;;5.10;99.90;;;;;;5015565;28;20246;-87
2020/12/04 09:22:16;;;;;;;9.65;6.70;;;5.30;99.90;;;;;;5015962;28;20294;-88
2020/12/04 09:24:44;;;;;;;13.30;8.50;;;5.30;99.90;;;;;;5016539;28;20235;-87
2020/12/04 09:27:11;;;;;;;11.50;6.78;;;5.50;99.90;;;;;;5015786;28;20235;-86
2020/12/04 09:29:38;;;;;;;9.98;6.60;;;5.80;99.90;;;;;;5015763;28;20722;-86
2020/12/04 09:32:10;;;;;;;8.02;6.40;;;5.90;99.90;;;;;;5014567;28;20235;-86
2020/12/04 09:34:36;;;;;;;8.73;6.32;;;6.00;99.90;;;;;;5015524;28;20207;-87
2020/12/04 09:37:17;;;;;;;8.52;5.57;;;6.00;99.90;;;;;;5015797;28;20216;-87
2020/12/04 09:39:44;;;;;;;8.70;5.10;;;5.90;99.90;;;;;;5015529;28;20235;-85
2020/12/04 09:42:14;;;;;;;9.55;6.90;;;5.80;99.90;;;;;;5024349;28;20212;-85
2020/12/04 09:44:41;;;;;;;11.90;7.75;;;5.70;99.90;;;;;;5037135;28;20211;-85
2020/12/04 09:47:08;;;;;;;9.52;6.90;;;5.80;99.90;;;;;;5036385;28;20239;-86
2020/12/04 09:49:35;;;;;;;15.95;9.20;;;5.90;99.90;;;;;;5037701;28;20215;-86
2020/12/04 09:52:02;;;;;;;9.18;7.10;;;6.00;99.90;;;;;;5038127;28;20214;-86
2020/12/04 09:54:29;;;;;;;8.15;6.45;;;5.90;99.90;;;;;;5036703;28;20199;-85
2020/12/04 09:56:57;;;;;;;8.80;6.38;;;6.00;99.90;;;;;;5018701;28;20298;-86
2020/12/04 09:59:25;;;;;;;9.13;6.47;;;5.90;99.90;;;;;;5016046;28;20200;-86
2020/12/04 10:01:53;;;;;;;14.82;7.15;;;5.90;99.90;;;;;;5014350;28;20250;-87
2020/12/04 10:04:20;;;;;;;10.02;6.47;;;6.10;99.90;;;;;;5014887;28;20231;-86
2020/12/04 10:06:47;;;;;;;9.52;6.85;;;6.20;99.90;;;;;;5015057;28;20291;-87
2020/12/04 10:09:14;;;;;;;8.38;6.93;;;6.20;99.90;;;;;;5014869;28;20306;-86
2020/12/04 10:11:41;;;;;;;10.65;8.25;;;6.40;99.90;;;;;;5014988;28;20318;-88
2020/12/04 10:14:08;;;;;;;9.55;6.53;;;6.40;99.90;;;;;;5014858;28;20258;-87
2020/12/04 10:16:36;;;;;;;6.13;5.47;;;6.50;99.90;;;;;;5013269;28;20287;-87
2020/12/04 10:19:02;;;;;;;9.13;7.57;;;6.30;99.90;;;;;;5014386;28;20306;-85
2020/12/04 10:21:33;;;;;;;11.98;8.15;;;6.50;99.90;;;;;;5014562;28;20644;-87
2020/12/04 10:24:00;;;;;;;12.60;6.20;;;6.50;99.90;;;;;;5014417;28;20307;-86
2020/12/04 10:26:26;;;;;;;10.20;7.55;;;6.40;99.90;;;;;;5013538;28;20294;-86
2020/12/04 10:28:53;;;;;;;11.65;8.60;;;6.20;99.90;;;;;;5014238;28;20238;-86
2020/12/04 10:31:19;;;;;;;7.93;6.35;;;6.10;99.90;;;;;;5012996;28;20269;-85
2020/12/04 10:33:46;;;;;;;15.45;8.45;;;6.00;99.90;;;;;;5014217;28;20250;-87
2020/12/04 10:36:13;;;;;;;13.77;11.55;;;6.00;99.90;;;;;;5013939;28;20239;-86
2020/12/04 10:38:40;;;;;;;9.60;7.72;;;6.10;99.90;;;;;;5014220;28;20235;-86
2020/12/04 10:41:06;;;;;;;20.05;18.05;;;5.90;99.90;;;;;;5016690;28;20275;-86
2020/12/04 10:43:33;;;;;;;14.15;12.35;;;5.90;99.90;;;;;;5017565;28;20291;-86
2020/12/04 10:45:59;;;;;;;11.07;8.20;;;5.90;99.90;;;;;;5027040;28;20200;-87
2020/12/04 10:48:26;;;;;;;11.50;8.98;;;5.90;99.90;;;;;;5036769;28;20243;-86
2020/12/04 10:50:53;;;;;;;12.45;10.13;;;5.80;99.90;;;;;;5032203;28;20310;-85
2020/12/04 10:53:25;;;;;;;22.30;15.60;;;5.90;99.90;;;;;;5016572;28;20655;-86
2020/12/04 10:55:52;;;;;;;16.33;9.00;;;5.90;99.90;;;;;;5015962;28;20208;-86
2020/12/04 10:58:18;;;;;;;11.68;8.02;;;5.90;99.90;;;;;;5014240;28;20216;-87
2020/12/04 11:00:48;;;;;;;10.73;7.63;;;5.80;99.90;;;;;;5013219;28;20304;-87
2020/12/04 11:03:20;;;;;;;10.82;7.75;;;6.10;99.90;;;;;;5014076;28;20227;-86
2020/12/04 11:05:46;;;;;;;8.70;7.53;;;6.00;99.90;;;;;;5013633;28;20262;-87
2020/12/04 11:08:14;;;;;;;11.00;8.43;;;6.00;99.90;;;;;;5013724;28;20321;-87
2020/12/04 11:10:42;;;;;;;11.25;8.63;;;6.00;99.90;;;;;;5013692;28;20231;-86
2020/12/04 11:13:09;;;;;;;22.25;7.85;;;6.10;99.90;;;;;;5013786;28;20226;-88
2020/12/04 11:15:35;;;;;;;8.50;6.75;;;6.30;99.90;;;;;;5012654;28;20200;-87
2020/12/04 11:18:03;;;;;;;9.95;6.32;;;6.40;99.90;;;;;;5013846;28;20575;-88
2020/12/04 11:20:29;;;;;;;11.65;6.95;;;6.50;99.90;;;;;;5014292;28;20218;-90
2020/12/04 11:22:56;;;;;;;12.52;6.25;;;6.60;99.90;;;;;;5010769;28;20238;-87
2020/12/04 11:25:23;;;;;;;9.98;6.57;;;6.30;99.90;;;;;;5013525;28;20290;-88
2020/12/04 11:27:51;;;;;;;12.38;6.88;;;6.30;99.90;;;;;;5013537;28;20262;-88
2020/12/04 11:30:19;;;;;;;10.00;7.00;;;6.30;99.90;;;;;;5012456;28;20660;-87
2020/12/04 11:32:47;;;;;;;12.18;7.35;;;6.50;99.90;;;;;;5013547;28;20210;-88
2020/12/04 11:35:15;;;;;;;10.15;7.00;;;6.50;99.90;;;;;;5013296;28;20738;-89
2020/12/04 11:37:45;;;;;;;9.63;7.00;;;6.50;99.90;;;;;;5013086;28;20340;-89
2020/12/04 11:40:15;;;;;;;10.63;6.97;;;6.50;99.90;;;;;;5013390;28;20294;-88
2020/12/04 11:42:44;;;;;;;11.27;8.02;;;6.50;99.90;;;;;;5013514;28;20207;-86
2020/12/04 11:45:15;;;;;;;10.13;6.45;;;6.50;99.90;;;;;;5012172;28;20294;-87
2020/12/04 11:47:43;;;;;;;10.27;8.45;;;6.50;99.90;;;;;;5010363;28;20230;-88
2020/12/04 11:50:15;;;;;;;8.57;6.63;;;6.70;99.90;;;;;;5010779;28;20246;-88
2020/12/04 11:52:41;;;;;;;9.43;6.93;;;6.70;99.90;;;;;;5013508;28;20639;-87
2020/12/04 11:55:09;;;;;;;10.52;7.60;;;6.60;99.90;;;;;;5013259;28;20642;-87
2020/12/04 11:57:36;;;;;;;9.98;6.75;;;6.50;99.90;;;;;;5013223;28;20290;-87
2020/12/04 12:00:05;;;;;;;12.43;7.70;;;6.60;99.90;;;;;;5011883;28;20302;-87
2020/12/04 12:02:31;;;;;;;10.68;8.15;;;6.50;99.90;;;;;;5012903;28;20618;-87
2020/12/04 12:04:58;;;;;;;10.27;7.70;;;6.50;99.90;;;;;;5012658;28;20633;-88
2020/12/04 12:07:24;;;;;;;9.32;6.65;;;6.50;99.90;;;;;;5012377;28;20231;-88
2020/12/04 12:09:51;;;;;;;11.00;6.88;;;6.50;99.90;;;;;;5012722;28;20294;-87
2020/12/04 12:12:19;;;;;;;11.02;8.52;;;6.60;99.90;;;;;;5012987;28;20243;-87
2020/12/04 12:14:46;;;;;;;15.85;11.30;;;6.60;99.90;;;;;;5013021;28;20621;-88
2020/12/04 12:17:14;;;;;;;10.73;7.10;;;6.60;99.90;;;;;;5011773;28;20232;-87
2020/12/04 12:19:41;;;;;;;9.00;6.38;;;6.40;99.90;;;;;;5012701;28;20242;-87
2020/12/04 12:22:08;;;;;;;14.82;9.85;;;6.40;99.90;;;;;;5012680;28;20212;-86
2020/12/04 12:24:35;;;;;;;13.05;9.25;;;6.30;99.90;;;;;;5008694;28;20203;-86
2020/12/04 12:27:01;;;;;;;11.15;8.23;;;6.20;99.90;;;;;;5013997;28;20261;-87
2020/12/04 12:29:27;;;;;;;10.45;7.47;;;6.30;99.90;;;;;;5013112;28;20287;-88
2020/12/04 12:31:54;;;;;;;11.02;7.85;;;6.20;99.90;;;;;;5011593;28;20211;-89
2020/12/04 12:34:21;;;;;;;10.60;7.55;;;6.10;99.90;;;;;;5008289;28;20231;-86
2020/12/04 12:36:48;;;;;;;205.30;87.35;;;6.00;99.90;;;;;;5013850;28;20250;-88
2020/12/04 12:39:14;;;;;;;82.13;38.00;;;6.10;99.90;;;;;;5013581;28;20211;-90
2020/12/04 12:41:40;;;;;;;18.88;12.02;;;6.10;99.90;;;;;;5013108;28;20238;-87
2020/12/04 12:44:07;;;;;;;122.95;57.85;;;6.20;99.90;;;;;;5012697;28;20387;-87
2020/12/04 12:46:33;;;;;;;62.55;31.67;;;6.10;99.90;;;;;;5011290;28;20721;-87
2020/12/04 12:48:59;;;;;;;18.60;12.35;;;6.20;99.90;;;;;;5013859;28;20322;-86
2020/12/04 12:51:27;;;;;;;21.50;12.60;;;6.40;99.90;;;;;;5015364;28;20542;-87